Time;durP1;ratioP1;P1;durP2;ratioP2;P2;SDS_P1;SDS_P2;PMS_P1;PMS_P2;Temp;Humidity;BMP_temperature;BMP_pressure;BME280_temperature;BME280_humidity;BME280_pressure;Samples;Min_cycle;Max_cycle;Signal;HPM_P1;HPM_P2
2021/09/21 05:10:35;;;;;;;6.04;4.41;;;;;;;12.33;79.44;100207.56;2301610;72;20254;31
2021/09/21 05:51:13;;;;;;;3.75;3.47;;;;;;;12.36;79.60;100254.44;2322131;69;20153;-81
2021/09/21 05:54:59;;;;;;;4.01;3.49;;;;;;;12.37;79.57;100264.00;2327549;69;20191;-81
2021/09/21 05:58:58;;;;;;;4.20;3.83;;;;;;;12.39;78.80;100274.47;2332595;69;20271;-81
2021/09/21 06:03:00;;;;;;;4.53;3.67;;;;;;;12.42;78.46;100284.00;2343509;68;20262;-81
2021/09/21 06:07:12;;;;;;;4.64;3.79;;;;;;;12.45;77.98;100284.88;2340563;68;20129;-81
2021/09/21 06:10:21;;;;;;;4.09;3.69;;;;;;;12.49;77.92;100290.97;2333997;68;20160;-80
2021/09/21 06:13:41;;;;;;;3.49;3.22;;;;;;;12.52;77.60;100311.78;2323358;69;20211;-79
2021/09/21 06:16:48;;;;;;;5.14;3.78;;;;;;;12.53;76.87;100319.63;2317794;69;20131;-81
2021/09/21 06:20:46;;;;;;;4.63;3.40;;;;;;;12.55;76.21;100320.47;2325615;69;20137;-81
2021/09/21 06:24:45;;;;;;;3.85;3.54;;;;;;;12.56;75.40;100330.03;2324122;69;20102;-81
2021/09/21 06:49:12;;;;;;;3.91;3.61;;;;;;;12.78;73.35;100349.22;2299295;69;21439;31
2021/09/21 06:52:39;;;;;;;6.88;3.67;;;;;;;12.86;73.31;100352.69;2333209;69;20170;-82
2021/09/21 06:55:50;;;;;;;4.16;3.76;;;;;;;12.93;72.63;100364.91;2324597;69;20197;-82
2021/09/21 06:58:52;;;;;;;3.67;3.33;;;;;;;12.98;72.35;100352.72;2321905;68;20121;-82
2021/09/21 07:01:55;;;;;;;3.89;3.59;;;;;;;13.11;72.31;100355.34;2329121;69;20127;-82
2021/09/21 07:05:03;;;;;;;5.91;4.84;;;;;;;13.29;72.61;100352.78;2342194;68;20254;-81
2021/09/21 07:08:10;;;;;;;6.20;5.50;;;;;;;13.54;72.10;100358.84;2335180;69;20106;-82
2021/09/21 07:18:16;;;;;;;3.63;3.38;;;;;;;14.14;68.92;100373.50;2324531;68;20125;-80
2021/09/21 07:21:40;;;;;;;4.21;3.85;;;;;;;14.21;68.15;100377.00;2347417;68;20167;-80
2021/09/21 07:24:42;;;;;;;4.89;4.14;;;;;;;14.26;67.51;100377.84;2338294;68;20099;-78
2021/09/21 07:27:46;;;;;;;3.50;3.15;;;;;;;14.28;67.69;100380.44;2339643;68;20103;-79
2021/09/21 07:30:49;;;;;;;3.46;3.24;;;;;;;14.31;67.55;100388.25;2345558;68;20119;-79
2021/09/21 07:38:27;;;;;;;5.11;2.92;;;;;;;14.38;67.36;100385.63;2359681;68;20107;-80
2021/09/21 07:41:30;;;;;;;3.61;3.10;;;;;;;14.49;67.41;100396.06;2368984;68;20144;-80
2021/09/21 07:44:33;;;;;;;4.59;2.96;;;;;;;14.57;66.86;100389.06;2353896;68;20158;-80
2021/09/21 07:47:35;;;;;;;3.19;2.99;;;;;;;14.64;66.67;100396.00;2347105;65;52350;-80
2021/09/21 07:50:38;;;;;;;4.16;2.70;;;;;;;14.70;65.42;100398.56;2352994;68;20216;-80
2021/09/21 07:53:41;;;;;;;8.94;2.99;;;;;;;14.73;65.28;100401.19;2349167;68;20116;-79
2021/09/21 07:56:56;;;;;;;4.03;3.26;;;;;;;14.75;64.86;100407.28;2350422;68;20096;-80
2021/09/21 08:00:34;;;;;;;5.82;3.24;;;;;;;14.78;65.63;100409.00;2351505;68;20129;-80
2021/09/21 08:03:56;;;;;;;3.51;3.10;;;;;;;14.84;65.45;100402.88;2340365;68;20217;-80
2021/09/21 08:06:59;;;;;;;3.33;3.06;;;;;;;14.88;64.79;100408.06;2349518;68;20129;-79
2021/09/21 08:10:05;;;;;;;3.04;2.81;;;;;;;14.92;63.95;100409.81;2348157;68;20100;-80
2021/09/21 08:13:09;;;;;;;6.50;4.80;;;;;;;14.98;64.03;100411.50;2359204;68;20160;-79
2021/09/21 08:16:12;;;;;;;7.28;4.61;;;;;;;15.04;63.13;100414.06;2356313;68;20206;-79
2021/09/21 08:19:15;;;;;;;8.26;4.51;;;;;;;15.13;62.82;100414.03;2353253;68;20127;-79
2021/09/21 08:26:28;;;;;;;4.66;3.19;;;;;;;15.51;62.87;100415.50;2348432;68;20127;-80
2021/09/21 08:29:35;;;;;;;2.91;2.53;;;;;;;15.71;62.28;100424.94;2345294;68;20104;-79
2021/09/21 08:32:39;;;;;;;6.09;3.15;;;;;;;15.79;62.40;100430.09;2364756;65;77695;-81
2021/09/21 08:35:42;;;;;;;3.34;2.79;;;;;;;15.84;61.88;100425.72;2352877;68;20092;-81
2021/09/21 08:38:45;;;;;;;2.71;2.36;;;;;;;15.88;61.03;100419.56;2360251;68;20125;-80
2021/09/21 08:41:50;;;;;;;3.86;2.86;;;;;;;16.00;61.33;100423.81;2346380;68;20091;-80
2021/09/21 08:44:56;;;;;;;2.95;2.69;;;;;;;16.17;60.91;100423.66;2348898;68;20198;-80
2021/09/21 08:53:23;;;;;;;3.42;2.46;;;;;;;16.60;58.35;100430.13;2343090;68;20109;-80
2021/09/21 11:03:54;;;;;;;1.65;1.55;;;;;;;18.54;47.37;100478.78;2328195;68;20108;-80
2021/09/21 11:06:57;;;;;;;1.85;1.63;;;;;;;18.20;45.91;100479.41;2354800;68;20122;-80
2021/09/21 11:10:00;;;;;;;2.61;1.95;;;;;;;18.16;47.49;100468.97;2347180;68;20178;-80
2021/09/21 11:13:16;;;;;;;2.58;1.83;;;;;;;18.16;47.26;100468.97;2346936;68;20092;-81
2021/09/21 11:16:25;;;;;;;2.31;1.84;;;;;;;18.04;47.92;100463.03;2342885;68;20119;-81
2021/09/21 11:19:29;;;;;;;1.81;1.71;;;;;;;18.18;47.21;100462.78;2353762;68;20107;-80
2021/09/21 11:22:32;;;;;;;3.08;1.59;;;;;;;18.61;47.15;100456.69;2348470;68;20125;-79
2021/09/21 11:25:34;;;;;;;1.77;1.67;;;;;;;19.06;46.37;100459.31;2346422;68;20092;-79
2021/09/21 11:28:42;;;;;;;4.26;1.99;;;;;;;19.35;44.25;100461.25;2363547;68;20187;-80
2021/09/21 11:31:47;;;;;;;1.83;1.70;;;;;;;19.45;44.76;100460.16;2343668;68;20144;-81
2021/09/21 11:34:58;;;;;;;2.36;1.63;;;;;;;19.37;44.18;100456.81;2348953;68;20096;-80
2021/09/21 11:38:01;;;;;;;1.69;1.54;;;;;;;19.47;45.28;100467.13;2356397;68;20139;-81
2021/09/21 11:41:05;;;;;;;3.44;1.61;;;;;;;19.60;45.72;100467.75;2346510;68;20104;-81
2021/09/21 11:44:09;;;;;;;3.70;1.54;;;;;;;19.63;44.53;100466.78;2344594;68;20099;-81
2021/09/21 11:47:15;;;;;;;2.84;1.79;;;;;;;19.49;44.36;100464.44;2315818;68;2650067;-81
2021/09/21 11:50:22;;;;;;;7.64;2.44;;;;;;;19.46;44.71;100468.03;2346181;68;20194;-80
2021/09/21 11:53:26;;;;;;;2.42;2.22;;;;;;;19.61;44.76;100467.69;2343706;68;20147;-80
2021/09/21 11:56:29;;;;;;;3.99;2.21;;;;;;;19.78;44.03;100472.56;2336581;68;20166;-80
2021/09/21 11:59:31;;;;;;;3.17;1.79;;;;;;;19.99;44.29;100479.06;2343336;68;20160;-82
2021/09/21 12:02:34;;;;;;;3.25;1.74;;;;;;;20.29;44.18;100468.59;2345317;65;34050;-81
2021/09/21 12:05:41;;;;;;;2.91;1.73;;;;;;;20.49;43.37;100467.19;2339766;68;20209;-81
2021/09/21 12:08:45;;;;;;;1.61;1.51;;;;;;;20.74;43.13;100470.00;2341028;68;20159;-81
2021/09/21 12:11:49;;;;;;;1.74;1.60;;;;;;;20.88;42.16;100476.66;2350539;68;20111;-80
2021/09/21 12:14:59;;;;;;;2.15;1.74;;;;;;;20.66;42.76;100486.97;2342150;68;20119;-81
2021/09/21 12:18:11;;;;;;;1.95;1.50;;;;;;;20.35;42.74;100487.78;2345758;66;33957;-81
2021/09/21 12:21:17;;;;;;;1.49;1.35;;;;;;;20.09;43.57;100491.09;2348492;68;20104;-80
2021/09/21 12:24:29;;;;;;;1.90;1.58;;;;;;;19.89;43.78;100481.03;2350853;68;20100;-81
2021/09/21 12:27:36;;;;;;;3.19;1.55;;;;;;;19.76;44.36;100489.31;2353666;68;20156;-81
2021/09/21 12:30:46;;;;;;;2.71;1.73;;;;;;;19.95;44.17;100487.97;2347657;68;20165;-81
2021/09/21 12:33:50;;;;;;;2.09;1.48;;;;;;;20.13;42.84;100476.94;2345651;68;20092;-81
2021/09/21 12:36:53;;;;;;;1.63;1.38;;;;;;;20.20;42.93;100473.22;2346732;68;20099;-80
2021/09/21 12:39:58;;;;;;;3.01;1.41;;;;;;;20.13;42.34;100471.66;2347616;68;20103;-80
2021/09/21 12:43:04;;;;;;;3.09;1.65;;;;;;;20.05;42.68;100456.94;2345797;68;20099;-80
2021/09/21 12:46:10;;;;;;;1.52;1.20;;;;;;;20.05;43.18;100456.94;2355867;68;20103;-81
2021/09/21 12:49:17;;;;;;;1.70;1.58;;;;;;;20.11;42.86;100456.78;2354498;68;20121;-79
2021/09/21 12:52:28;;;;;;;1.98;1.59;;;;;;;20.10;41.79;100463.81;2343628;68;20095;-82
2021/09/21 12:55:33;;;;;;;2.09;1.89;;;;;;;20.08;41.99;100470.91;2343557;68;20095;-81
2021/09/21 12:58:39;;;;;;;2.13;1.50;;;;;;;20.10;42.48;100470.84;2341723;68;20178;-81
2021/09/21 13:01:54;;;;;;;1.48;1.38;;;;;;;20.00;41.92;100467.59;2353683;68;20100;-81
2021/09/21 13:05:22;;;;;;;3.83;1.73;;;;;;;19.80;42.19;100467.25;2347016;68;20290;-81
2021/09/21 13:08:44;;;;;;;2.69;1.42;;;;;;;19.74;43.08;100456.84;2346901;68;20108;-80
2021/09/21 13:11:47;;;;;;;1.81;1.29;;;;;;;19.74;41.86;100451.56;2343827;68;20205;-80
2021/09/21 13:14:49;;;;;;;1.79;1.50;;;;;;;19.74;42.54;100452.44;2350906;68;20166;-81
2021/09/21 13:17:55;;;;;;;1.40;1.29;;;;;;;19.85;42.90;100449.53;2350954;65;30503;-80
2021/09/21 13:20:58;;;;;;;1.26;1.19;;;;;;;19.87;42.93;100451.22;2345733;68;20103;-81
2021/09/21 13:24:01;;;;;;;5.30;1.54;;;;;;;19.88;42.45;100438.91;2358036;68;20099;-81
2021/09/21 13:27:11;;;;;;;1.70;1.49;;;;;;;19.86;42.45;100433.69;2344193;68;20092;-81
2021/09/21 13:30:16;;;;;;;1.86;1.25;;;;;;;19.84;42.28;100439.91;2351181;68;20092;-81
2021/09/21 13:33:20;;;;;;;1.40;1.30;;;;;;;19.85;42.35;100436.34;2344481;68;20125;-80
2021/09/21 13:36:23;;;;;;;1.67;1.58;;;;;;;19.82;41.88;100441.72;2340803;68;20159;-81
2021/09/21 13:39:25;;;;;;;1.39;1.29;;;;;;;19.79;41.68;100439.16;2351782;68;20095;-80
2021/09/21 13:42:28;;;;;;;1.56;1.46;;;;;;;19.78;42.11;100445.34;2348756;68;20161;-81
2021/09/21 13:45:31;;;;;;;1.56;1.34;;;;;;;19.82;42.04;100441.72;2352607;68;20107;-81
2021/09/21 13:48:34;;;;;;;1.55;1.24;;;;;;;19.80;41.12;100435.63;2350881;68;20227;-80
2021/09/21 13:51:36;;;;;;;4.28;1.24;;;;;;;19.83;41.49;100438.16;2353343;68;20111;-81
2021/09/21 13:54:39;;;;;;;2.63;1.30;;;;;;;19.91;42.05;100430.91;2337843;68;20125;-81
2021/09/21 13:57:43;;;;;;;3.01;1.38;;;;;;;19.98;41.88;100439.56;2345472;68;20265;-80
2021/09/21 14:00:46;;;;;;;1.25;1.15;;;;;;;19.99;41.71;100434.25;2339898;68;20139;-81
2021/09/21 14:03:49;;;;;;;2.60;1.21;;;;;;;19.93;41.28;100444.94;2348706;68;20229;-81
2021/09/21 14:06:52;;;;;;;2.78;1.11;;;;;;;19.79;41.08;100447.06;2342757;68;20181;-82
2021/09/21 14:09:55;;;;;;;1.40;1.10;;;;;;;19.74;42.11;100447.16;2348541;68;20142;-80
2021/09/21 14:12:58;;;;;;;2.20;1.10;;;;;;;19.75;42.41;100443.66;2342227;68;20125;-81
2021/09/21 14:16:01;;;;;;;2.99;1.10;;;;;;;19.85;42.48;100433.72;2352266;68;20104;-81
2021/09/21 14:19:04;;;;;;;3.40;0.89;;;;;;;19.91;42.01;100423.88;2352054;68;20158;-80
2021/09/21 14:22:09;;;;;;;2.74;1.49;;;;;;;19.97;41.89;100424.63;2341648;68;20143;-82
2021/09/21 14:25:12;;;;;;;4.07;1.39;;;;;;;19.97;41.38;100429.91;2340366;68;20240;-81
2021/09/21 14:28:19;;;;;;;0.95;0.82;;;;;;;19.91;40.23;100428.28;2346033;68;20143;-81
2021/09/21 14:31:22;;;;;;;1.00;0.90;;;;;;;19.90;41.69;100426.56;2346629;68;20207;-81
2021/09/21 14:34:25;;;;;;;2.36;1.05;;;;;;;19.87;41.38;100429.28;2342360;68;20284;-81
2021/09/21 14:37:31;;;;;;;1.56;1.20;;;;;;;19.78;41.02;100434.78;2349209;68;20124;-80
2021/09/21 14:40:34;;;;;;;1.81;1.30;;;;;;;19.74;41.46;100428.72;2344289;68;20111;-81
2021/09/21 14:43:38;;;;;;;2.99;1.25;;;;;;;19.58;40.83;100428.25;2342037;68;20095;-80
2021/09/21 14:46:42;;;;;;;1.56;1.09;;;;;;;19.44;40.17;100427.69;2344374;68;20140;-82
2021/09/21 14:49:45;;;;;;;1.23;0.94;;;;;;;19.37;41.38;100439.25;2353737;68;20216;-81
2021/09/21 14:52:49;;;;;;;2.96;0.90;;;;;;;19.42;41.91;100433.91;2338272;68;20143;-81
2021/09/21 14:55:53;;;;;;;1.19;1.00;;;;;;;19.47;42.10;100424.97;2351380;68;20144;-80
2021/09/21 14:58:55;;;;;;;1.17;1.11;;;;;;;19.52;42.24;100420.44;2345783;68;20144;-81
2021/09/21 15:01:59;;;;;;;1.20;1.10;;;;;;;19.55;41.47;100425.66;2346004;66;35419;-82
2021/09/21 15:05:03;;;;;;;2.20;1.27;;;;;;;19.54;41.62;100420.44;2344455;68;20119;-79
2021/09/21 15:08:08;;;;;;;1.64;1.10;;;;;;;19.61;41.93;100420.28;2339815;68;20107;-81
2021/09/21 15:11:11;;;;;;;3.53;1.48;;;;;;;19.59;41.54;100427.34;2350662;68;20148;-81
2021/09/21 15:14:14;;;;;;;2.20;1.48;;;;;;;19.58;41.86;100420.34;2353727;68;20163;-80
2021/09/21 15:17:18;;;;;;;1.40;1.19;;;;;;;19.58;41.84;100430.03;2351120;68;20124;-81
2021/09/21 15:20:26;;;;;;;2.09;1.36;;;;;;;19.59;40.73;100427.34;2344458;68;20119;-80
2021/09/21 15:23:28;;;;;;;1.51;1.40;;;;;;;19.61;40.72;100430.81;2347697;68;20087;-81
2021/09/21 15:26:31;;;;;;;1.89;1.40;;;;;;;19.57;41.01;100421.25;2342958;68;20215;-82
2021/09/21 15:29:34;;;;;;;1.30;1.06;;;;;;;19.59;40.44;100426.50;2337919;68;20099;-80
2021/09/21 15:32:38;;;;;;;1.27;1.17;;;;;;;19.63;40.88;100427.28;2344458;68;20174;-80
2021/09/21 15:35:40;;;;;;;5.64;1.16;;;;;;;19.65;40.81;100423.69;2344039;68;20866;-80
2021/09/21 15:38:43;;;;;;;1.69;0.95;;;;;;;19.66;41.10;100435.09;2341954;68;20120;-81
2021/09/21 15:41:46;;;;;;;1.30;1.20;;;;;;;19.66;40.22;100435.09;2343485;68;20187;-81
2021/09/21 15:44:49;;;;;;;3.88;1.10;;;;;;;19.55;40.18;100435.34;2350753;68;20096;-81
2021/09/21 15:47:51;;;;;;;1.25;1.15;;;;;;;19.45;40.79;100434.69;2344141;68;20091;-80
2021/09/21 15:50:54;;;;;;;4.21;1.20;;;;;;;19.41;40.93;100446.19;2348190;68;20216;-81
2021/09/21 15:53:58;;;;;;;1.15;1.10;;;;;;;19.26;41.50;100436.88;2349743;68;20144;-80
2021/09/21 15:57:03;;;;;;;1.36;1.20;;;;;;;19.08;41.69;100444.34;2341862;68;20139;-80
2021/09/21 16:00:12;;;;;;;1.36;1.14;;;;;;;18.87;43.08;100436.03;2341331;68;20103;-80
2021/09/21 16:03:16;;;;;;;2.53;1.30;;;;;;;18.70;43.73;100448.66;2348911;68;20169;-81
2021/09/21 16:06:18;;;;;;;2.44;1.20;;;;;;;18.60;43.57;100452.34;2343511;68;20156;-80
2021/09/21 16:09:22;;;;;;;2.01;1.20;;;;;;;18.51;43.18;100458.66;2340926;68;20123;-80
2021/09/21 16:12:25;;;;;;;2.00;1.40;;;;;;;18.39;43.43;100466.78;2344840;68;20136;-79
2021/09/21 16:15:28;;;;;;;1.30;1.20;;;;;;;18.25;44.34;100471.41;2341291;68;20108;-81
2021/09/21 16:18:31;;;;;;;3.96;1.14;;;;;;;18.10;44.31;100480.44;2348879;68;20255;-80
2021/09/21 16:21:36;;;;;;;2.47;1.20;;;;;;;18.01;44.63;100481.50;2353934;68;20099;-80
2021/09/21 16:24:39;;;;;;;1.27;1.16;;;;;;;17.89;44.44;100481.69;2353691;68;20127;-80
2021/09/21 16:27:45;;;;;;;2.88;1.25;;;;;;;17.84;44.79;100480.91;2347205;68;20096;-80
2021/09/21 16:31:03;;;;;;;3.01;1.75;;;;;;;17.78;46.30;100481.00;2354426;68;20103;-82
2021/09/21 16:34:16;;;;;;;1.48;1.36;;;;;;;17.74;46.21;100482.81;2343812;68;20293;-80
2021/09/21 16:37:19;;;;;;;1.41;1.09;;;;;;;17.56;46.36;100493.56;2355365;68;20136;-80
2021/09/21 16:40:24;;;;;;;2.00;1.45;;;;;;;17.43;46.51;100490.28;2345085;68;20139;-79
2021/09/21 16:43:26;;;;;;;1.69;1.30;;;;;;;17.28;46.20;100494.88;2345794;68;20152;-81
2021/09/21 16:46:32;;;;;;;1.38;1.27;;;;;;;17.19;46.94;100495.84;2367281;68;20108;-80
2021/09/21 16:49:35;;;;;;;4.55;1.67;;;;;;;17.08;46.98;100503.03;2359710;68;20161;-80
2021/09/21 16:52:37;;;;;;;2.97;1.42;;;;;;;16.84;52.14;100506.81;2348061;68;20148;-80
2021/09/21 16:55:40;;;;;;;3.10;1.44;;;;;;;16.61;52.22;100505.28;2351004;68;20092;-80
2021/09/21 16:58:44;;;;;;;1.33;1.23;;;;;;;16.43;55.88;100504.63;2351834;68;20103;-80
2021/09/21 17:01:46;;;;;;;2.56;1.30;;;;;;;16.15;57.03;100510.13;2344143;68;20123;-81
2021/09/21 17:04:50;;;;;;;2.67;1.30;;;;;;;15.97;59.01;100511.16;2346350;68;20124;-79
2021/09/21 17:07:53;;;;;;;1.79;1.25;;;;;;;15.75;60.55;100520.06;2353554;68;20139;-80
2021/09/21 17:10:55;;;;;;;1.73;1.42;;;;;;;15.52;60.21;100522.81;2354835;68;20100;-80
2021/09/21 17:13:58;;;;;;;2.99;1.48;;;;;;;15.31;60.72;100521.19;2349403;68;20103;-81
2021/09/21 17:17:02;;;;;;;1.24;1.10;;;;;;;15.11;61.51;100523.91;2353618;68;20125;-80
2021/09/21 17:20:06;;;;;;;1.27;1.17;;;;;;;14.94;61.58;100523.13;2342101;68;20103;-79
2021/09/21 17:23:48;;;;;;;2.59;1.17;;;;;;;14.73;62.98;100515.38;2351066;68;20169;-80
2021/09/21 17:27:01;;;;;;;1.56;1.34;;;;;;;14.54;63.44;100522.34;2332504;68;20142;-79
2021/09/21 17:30:06;;;;;;;6.00;1.85;;;;;;;14.35;64.35;100523.22;2330871;68;20944;-79
2021/09/21 17:33:09;;;;;;;1.79;1.38;;;;;;;14.23;65.92;100525.88;2330598;68;20248;-79
2021/09/21 17:36:12;;;;;;;4.32;1.65;;;;;;;14.03;65.98;100537.22;2333375;68;20207;-79
2021/09/21 17:39:14;;;;;;;2.34;1.26;;;;;;;13.89;66.61;100529.38;2331797;68;20155;-79
2021/09/21 17:42:32;;;;;;;1.79;1.14;;;;;;;13.78;67.06;100528.47;2332475;68;20166;-80
2021/09/21 17:45:36;;;;;;;2.29;1.40;;;;;;;13.66;66.57;100532.84;2330352;68;20143;-79
2021/09/21 17:48:39;;;;;;;3.06;1.51;;;;;;;13.54;67.69;100525.84;2326609;68;20186;-79
2021/09/21 17:51:42;;;;;;;1.29;1.19;;;;;;;13.40;67.64;100533.66;2328443;68;20219;-79
2021/09/21 17:54:45;;;;;;;1.44;1.34;;;;;;;13.31;67.93;100528.41;2324541;68;20146;-79
2021/09/21 17:58:00;;;;;;;1.67;1.49;;;;;;;13.24;67.85;100529.25;2331405;68;20171;-79
2021/09/21 18:01:04;;;;;;;1.50;1.40;;;;;;;13.16;68.14;100529.19;2328255;68;20175;-78
2021/09/21 18:04:07;;;;;;;3.03;1.63;;;;;;;13.06;68.63;100535.25;2330516;68;20181;-79
2021/09/21 18:07:10;;;;;;;2.45;1.77;;;;;;;13.02;69.18;100546.53;2330499;68;20263;-79
2021/09/21 18:10:14;;;;;;;2.38;1.98;;;;;;;12.95;69.69;100540.44;2329835;68;20223;-79
2021/09/21 18:13:17;;;;;;;2.08;1.61;;;;;;;12.88;69.52;100535.16;2327861;68;20764;-79
2021/09/21 18:16:58;;;;;;;3.05;1.76;;;;;;;12.84;70.09;100549.91;2331277;68;20143;-79
2021/09/21 18:20:35;;;;;;;2.04;1.74;;;;;;;12.79;70.67;100545.56;2330887;68;20588;-79
2021/09/21 18:23:38;;;;;;;3.94;1.83;;;;;;;12.71;71.31;100548.97;2320879;68;20171;-79
2021/09/21 18:26:42;;;;;;;1.79;1.69;;;;;;;12.64;71.70;100555.03;2332850;68;20223;-79
2021/09/21 18:29:44;;;;;;;3.92;1.64;;;;;;;12.56;71.89;100559.31;2331548;68;20152;-79
2021/09/21 18:32:47;;;;;;;1.98;1.52;;;;;;;12.51;72.08;100558.41;2332205;68;20147;-79
2021/09/21 18:35:53;;;;;;;1.88;1.76;;;;;;;12.44;72.15;100559.25;2331735;68;20742;-79
2021/09/21 18:38:56;;;;;;;3.86;2.10;;;;;;;12.39;72.48;100555.75;2331145;68;20165;-79
2021/09/21 18:41:59;;;;;;;1.96;1.59;;;;;;;12.30;72.95;100553.94;2332174;68;20227;-79
2021/09/21 18:45:02;;;;;;;2.78;1.76;;;;;;;12.25;72.70;100554.78;2331772;68;20155;-79
2021/09/21 18:48:06;;;;;;;1.86;1.76;;;;;;;12.15;73.00;100558.16;2335323;68;20210;-80
2021/09/21 18:51:09;;;;;;;1.89;1.71;;;;;;;12.06;73.50;100558.97;2331197;68;20155;-80
2021/09/21 18:54:12;;;;;;;1.92;1.75;;;;;;;11.99;73.87;100560.63;2330561;68;20197;-80
2021/09/21 18:57:16;;;;;;;5.97;1.70;;;;;;;11.94;74.14;100556.25;2333115;68;20167;-80
2021/09/21 19:00:22;;;;;;;2.20;1.81;;;;;;;11.87;74.34;100550.13;2330945;68;20459;-80
2021/09/21 19:03:26;;;;;;;1.67;1.58;;;;;;;11.81;74.84;100555.25;2332772;68;20147;-79
2021/09/21 19:06:31;;;;;;;3.14;1.95;;;;;;;11.71;75.20;100548.19;2318321;68;20171;-80
2021/09/21 19:09:35;;;;;;;3.16;1.99;;;;;;;11.64;75.12;100549.84;2333894;68;20099;-80
2021/09/21 19:12:56;;;;;;;3.35;1.96;;;;;;;11.55;75.14;100541.97;2335431;68;20186;-80
2021/09/21 19:16:00;;;;;;;1.90;1.80;;;;;;;11.45;75.73;100551.41;2335304;68;20167;-80
2021/09/21 19:19:03;;;;;;;2.69;1.98;;;;;;;11.39;76.36;100551.34;2334199;68;20173;-79
2021/09/21 19:22:06;;;;;;;4.95;2.54;;;;;;;11.33;76.55;100555.63;2332147;68;20191;-79
2021/09/21 19:25:09;;;;;;;2.60;2.06;;;;;;;11.25;76.98;100563.31;2332360;68;20634;-80
2021/09/21 19:28:13;;;;;;;3.88;2.33;;;;;;;11.20;76.83;100572.78;2332223;68;21016;-80
2021/09/21 19:31:15;;;;;;;2.63;2.13;;;;;;;11.14;76.74;100577.94;2331439;68;20461;-78
2021/09/21 19:34:18;;;;;;;5.47;2.47;;;;;;;11.04;77.26;100579.53;2330102;68;20173;-80
2021/09/21 19:37:23;;;;;;;2.47;2.28;;;;;;;10.96;77.30;100586.34;2331301;68;20177;-79
2021/09/21 19:40:29;;;;;;;4.72;2.13;;;;;;;10.96;77.44;100585.50;2332348;68;20682;-79
2021/09/21 19:43:32;;;;;;;2.58;2.17;;;;;;;10.90;77.77;100581.94;2331420;68;20163;-79
2021/09/21 19:46:36;;;;;;;3.83;2.29;;;;;;;10.84;77.99;100587.06;2326749;68;20143;-79
2021/09/21 19:49:40;;;;;;;2.86;2.63;;;;;;;10.81;78.05;100594.81;2329776;68;20187;-79
2021/09/21 19:52:42;;;;;;;3.30;3.00;;;;;;;10.73;78.33;100593.81;2329107;68;20152;-79
2021/09/21 19:55:45;;;;;;;2.39;2.16;;;;;;;10.66;78.82;100594.59;2332480;68;20171;-80
2021/09/21 19:58:48;;;;;;;3.13;2.33;;;;;;;10.58;78.58;100589.25;2332670;68;20176;-80
2021/09/21 20:01:50;;;;;;;4.11;2.34;;;;;;;10.56;78.85;100595.28;2329739;68;20166;-79
2021/09/21 20:04:54;;;;;;;3.21;2.91;;;;;;;10.46;79.29;100606.41;2332836;68;20770;-79
2021/09/21 20:07:58;;;;;;;5.91;3.16;;;;;;;10.42;79.56;100605.50;2330052;68;20151;-79
2021/09/21 20:11:02;;;;;;;3.60;3.26;;;;;;;10.39;79.70;100602.81;2331713;68;20159;-80
2021/09/21 20:14:05;;;;;;;6.18;3.56;;;;;;;10.37;80.04;100607.13;2332166;68;20147;-79
2021/09/21 20:17:08;;;;;;;5.53;3.28;;;;;;;10.35;80.04;100613.13;2329914;68;20261;-79
2021/09/21 20:20:11;;;;;;;4.70;3.61;;;;;;;10.28;80.13;100602.66;2331274;68;20234;-79
2021/09/21 20:23:14;;;;;;;5.26;3.66;;;;;;;10.29;80.23;100609.59;2332004;68;20147;-79
2021/09/21 20:26:17;;;;;;;6.63;3.51;;;;;;;10.27;80.27;100606.13;2330853;68;20211;-80
2021/09/21 20:29:21;;;;;;;4.72;3.31;;;;;;;10.24;80.45;100607.78;2332764;68;20258;-79
2021/09/21 20:32:24;;;;;;;4.79;3.35;;;;;;;10.22;80.32;100604.28;2327825;68;20162;-79
2021/09/21 20:35:32;;;;;;;4.15;3.06;;;;;;;10.17;80.35;100603.28;2332312;68;20147;-79
2021/09/21 20:38:35;;;;;;;3.96;3.18;;;;;;;10.11;80.57;100598.88;2334935;68;20872;-80
2021/09/21 20:41:38;;;;;;;3.25;3.00;;;;;;;10.08;80.68;100605.75;2334606;68;20135;-80
2021/09/21 20:44:40;;;;;;;4.03;3.49;;;;;;;10.00;80.71;100610.78;2330149;68;20147;-80
2021/09/21 20:47:43;;;;;;;4.63;3.11;;;;;;;9.94;80.67;100615.88;2335835;68;20215;-80
2021/09/21 20:50:46;;;;;;;4.15;2.96;;;;;;;9.93;80.90;100616.72;2332688;68;20173;-80
2021/09/21 20:53:48;;;;;;;3.28;2.84;;;;;;;9.83;80.68;100620.00;2336325;68;20163;-80
2021/09/21 20:56:51;;;;;;;3.69;2.89;;;;;;;9.83;81.11;100617.41;2333625;68;20196;-80
2021/09/21 20:59:54;;;;;;;2.88;2.60;;;;;;;9.82;81.30;100613.94;2333933;68;20148;-80
2021/09/21 21:02:57;;;;;;;2.94;2.50;;;;;;;9.79;81.66;100611.28;2336255;68;20151;-80
2021/09/21 21:06:00;;;;;;;4.03;2.20;;;;;;;9.81;81.63;100612.19;2333426;68;20641;-80
2021/09/21 21:09:03;;;;;;;3.58;2.71;;;;;;;9.77;81.65;100618.16;2335308;68;20147;-80
2021/09/21 21:12:06;;;;;;;5.50;2.86;;;;;;;9.75;81.89;100614.69;2334500;68;20143;-80
2021/09/21 21:15:09;;;;;;;4.91;2.69;;;;;;;9.74;81.86;100618.13;2334981;68;20155;-80
2021/09/21 21:18:12;;;;;;;3.38;2.44;;;;;;;9.67;81.85;100624.88;2334988;68;20167;-80
2021/09/21 21:21:15;;;;;;;4.10;2.54;;;;;;;9.62;81.89;100613.56;2333916;68;20206;-80
2021/09/21 21:24:19;;;;;;;5.57;3.20;;;;;;;9.64;82.14;100611.00;2328241;68;20172;-80
2021/09/21 21:27:22;;;;;;;4.18;2.99;;;;;;;9.62;82.27;100605.78;2333473;68;20191;-81
2021/09/21 21:30:25;;;;;;;2.72;2.53;;;;;;;9.61;82.37;100610.94;2335444;68;20219;-80
2021/09/21 21:33:27;;;;;;;2.34;2.13;;;;;;;9.61;82.50;100608.34;2334289;68;20146;-80
2021/09/21 21:36:30;;;;;;;3.78;2.85;;;;;;;9.55;82.48;100613.44;2338613;68;20111;-80
2021/09/21 21:39:33;;;;;;;3.96;2.49;;;;;;;9.53;82.76;100615.13;2340392;68;20526;-80
2021/09/21 21:42:36;;;;;;;3.25;2.33;;;;;;;9.49;82.92;100611.56;2328966;68;20143;-79
2021/09/21 21:45:40;;;;;;;4.21;3.81;;;;;;;9.46;82.81;100614.09;2333344;68;20178;-80
2021/09/21 21:48:43;;;;;;;4.59;3.59;;;;;;;9.44;82.84;100615.81;2334556;68;20139;-80
2021/09/21 21:51:47;;;;;;;6.26;3.90;;;;;;;9.42;82.97;100622.69;2330410;68;20147;-80
2021/09/21 21:54:49;;;;;;;6.84;3.51;;;;;;;9.40;83.00;100629.56;2333976;68;20219;-80
2021/09/21 21:57:52;;;;;;;5.01;3.95;;;;;;;9.36;83.04;100625.16;2329328;68;20227;-80
2021/09/21 22:00:55;;;;;;;3.50;3.14;;;;;;;9.34;83.24;100629.44;2333257;68;20201;-80
2021/09/21 22:03:58;;;;;;;3.51;3.15;;;;;;;9.32;83.29;100631.09;2333703;68;20177;-79
2021/09/21 22:07:01;;;;;;;5.69;3.30;;;;;;;9.31;83.37;100631.94;2334441;68;20258;-80
2021/09/21 22:10:06;;;;;;;3.20;2.90;;;;;;;9.25;83.41;100637.88;2333507;68;20203;-80
2021/09/21 22:13:09;;;;;;;3.20;2.90;;;;;;;9.24;83.64;100643.91;2340138;68;20676;-79
2021/09/21 22:16:12;;;;;;;3.67;3.00;;;;;;;9.24;83.76;100646.50;2331704;68;20159;-80
2021/09/21 22:19:15;;;;;;;4.44;3.16;;;;;;;9.23;83.98;100644.75;2335773;68;20139;-80
2021/09/21 22:22:18;;;;;;;3.04;2.47;;;;;;;9.22;83.90;100645.59;2328491;68;20175;-80
2021/09/21 22:25:22;;;;;;;5.69;3.03;;;;;;;9.22;83.80;100645.59;2330022;68;20216;-80
2021/09/21 22:28:25;;;;;;;4.26;2.92;;;;;;;9.20;83.87;100641.22;2330448;68;20242;-80
2021/09/21 22:31:29;;;;;;;3.15;2.85;;;;;;;9.17;83.92;100641.16;2333739;68;20143;-80
2021/09/21 22:34:33;;;;;;;3.54;2.71;;;;;;;9.12;84.03;100635.00;2329502;68;20282;-80
2021/09/21 22:37:37;;;;;;;2.75;2.49;;;;;;;9.08;83.91;100631.47;2330561;68;20143;-80
2021/09/21 22:40:40;;;;;;;2.72;2.47;;;;;;;9.01;84.01;100625.28;2336457;68;20172;-80
2021/09/21 22:43:43;;;;;;;3.94;2.85;;;;;;;8.99;84.17;100618.34;2337515;68;20198;-80
2021/09/21 22:46:46;;;;;;;2.91;2.71;;;;;;;8.92;84.39;100622.47;2338663;68;20143;-80
2021/09/21 22:49:49;;;;;;;3.15;2.78;;;;;;;8.94;84.56;100625.09;2332029;68;20172;-80
2021/09/21 22:52:51;;;;;;;3.72;2.88;;;;;;;8.91;84.61;100628.50;2336113;68;20163;-80
2021/09/21 22:55:54;;;;;;;3.79;2.70;;;;;;;8.86;84.46;100624.94;2336491;68;20159;-80
2021/09/21 22:58:57;;;;;;;5.70;2.75;;;;;;;8.82;84.40;100622.25;2335774;68;20147;-80
2021/09/21 23:01:59;;;;;;;4.63;2.91;;;;;;;8.77;84.55;100614.38;2332870;68;20165;-80
2021/09/21 23:05:04;;;;;;;4.24;2.59;;;;;;;8.76;84.55;100612.63;2346520;68;20170;-79